createdAt,value
2019-01-29T00:01:40.331Z,6.27
2019-01-29T00:04:10.049Z,6.20
2019-01-29T00:06:39.796Z,6.31
2019-01-29T00:09:10.787Z,6.40
2019-01-29T00:11:40.576Z,6.49
2019-01-29T00:14:10.208Z,6.34
2019-01-29T00:16:39.922Z,6.46
2019-01-29T00:19:09.545Z,6.27
2019-01-29T00:21:39.284Z,6.38
2019-01-29T00:24:08.881Z,6.31
2019-01-29T00:26:38.534Z,6.40
2019-01-29T00:29:08.306Z,6.32
2019-01-29T00:31:37.886Z,6.29
2019-01-29T00:34:07.491Z,6.26
2019-01-29T00:36:37.157Z,6.29
2019-01-29T00:39:09.068Z,5.95
2019-01-29T00:41:38.678Z,6.18
2019-01-29T00:44:08.335Z,6.23
2019-01-29T00:46:37.938Z,6.05
2019-01-29T00:49:07.743Z,6.00
2019-01-29T00:51:37.489Z,6.26
2019-01-29T00:54:07.264Z,6.49
2019-01-29T00:56:36.890Z,5.90
2019-01-29T00:59:06.613Z,6.04
2019-01-29T01:01:36.195Z,6.23
2019-01-29T01:04:06.356Z,6.39
2019-01-29T01:06:35.994Z,6.31
2019-01-29T01:09:08.388Z,6.01
2019-01-29T01:11:38.019Z,5.95
2019-01-29T01:14:07.912Z,5.85
2019-01-29T01:16:37.501Z,6.56
2019-01-29T01:19:07.184Z,6.18
2019-01-29T01:21:36.893Z,6.07
2019-01-29T01:24:06.675Z,5.86
2019-01-29T01:26:36.285Z,5.64
2019-01-29T01:29:06.101Z,5.80
2019-01-29T01:31:35.685Z,5.59
2019-01-29T01:34:05.293Z,5.65
2019-01-29T01:36:35.091Z,5.81
2019-01-29T01:39:07.551Z,5.74
2019-01-29T01:41:37.280Z,5.53
2019-01-29T01:44:07.051Z,5.92
2019-01-29T01:46:36.664Z,5.97
2019-01-29T01:49:06.265Z,5.96
2019-01-29T01:51:35.946Z,5.70
2019-01-29T01:54:05.890Z,6.02
2019-01-29T01:56:35.518Z,5.63
2019-01-29T01:59:05.921Z,5.76
2019-01-29T02:01:35.545Z,5.88
2019-01-29T02:04:05.293Z,5.72
2019-01-29T02:06:34.935Z,5.79
2019-01-29T02:09:06.670Z,5.78
2019-01-29T02:11:36.269Z,5.37
2019-01-29T02:14:06.289Z,5.58
2019-01-29T02:16:35.926Z,5.55
2019-01-29T02:19:05.627Z,5.76
2019-01-29T02:21:35.313Z,5.69
2019-01-29T02:24:05.012Z,5.46
2019-01-29T02:26:34.625Z,5.33
2019-01-29T02:29:04.466Z,5.44
2019-01-29T02:31:34.082Z,5.71
2019-01-29T02:34:03.879Z,6.07
2019-01-29T02:36:33.570Z,5.64
2019-01-29T02:39:04.870Z,5.70
2019-01-29T02:41:34.525Z,6.32
2019-01-29T02:44:04.164Z,5.19
2019-01-29T02:46:33.759Z,5.09
2019-01-29T02:49:03.359Z,4.84
2019-01-29T02:51:33.088Z,4.98
2019-01-29T02:54:02.820Z,5.24
2019-01-29T02:56:32.432Z,5.04
2019-01-29T02:59:02.076Z,4.86
2019-01-29T03:01:31.666Z,5.25
2019-01-29T03:04:01.302Z,5.32
2019-01-29T03:06:31.072Z,5.20
2019-01-29T03:09:00.643Z,5.23
2019-01-29T03:11:30.229Z,5.31
2019-01-29T03:13:59.956Z,5.44
2019-01-29T03:16:29.563Z,4.99
2019-01-29T03:18:59.195Z,5.20
2019-01-29T03:21:28.868Z,5.26
2019-01-29T03:23:58.466Z,5.32
2019-01-29T03:26:28.119Z,5.34
2019-01-29T03:28:57.764Z,5.26
2019-01-29T03:31:27.350Z,5.30
2019-01-29T03:33:56.978Z,5.66
2019-01-29T03:36:26.639Z,5.82
2019-01-29T03:38:56.272Z,5.59
2019-01-29T03:41:25.883Z,5.57
2019-01-29T03:43:55.549Z,5.57
2019-01-29T03:46:25.149Z,5.53
2019-01-29T03:48:54.757Z,5.34
2019-01-29T03:51:24.620Z,5.50
2019-01-29T03:53:54.213Z,5.55
2019-01-29T03:56:23.838Z,5.48
2019-01-29T03:58:53.498Z,5.49
2019-01-29T04:01:23.122Z,5.16
2019-01-29T04:03:52.804Z,6.72
2019-01-29T04:06:22.548Z,5.99
2019-01-29T04:08:52.177Z,5.55
2019-01-29T04:11:21.864Z,5.20
2019-01-29T04:13:51.545Z,5.43
2019-01-29T04:16:21.190Z,5.47
2019-01-29T04:18:50.793Z,5.54
2019-01-29T04:21:20.570Z,5.59
2019-01-29T04:23:50.177Z,5.68
2019-01-29T04:26:19.820Z,5.71
2019-01-29T04:28:49.456Z,5.38
2019-01-29T04:31:19.054Z,5.50
2019-01-29T04:33:48.699Z,5.43
2019-01-29T04:36:20.309Z,5.53
2019-01-29T04:38:50.241Z,5.46
2019-01-29T04:41:19.882Z,5.80
2019-01-29T04:43:49.619Z,5.66
2019-01-29T04:46:20.994Z,4.91
2019-01-29T04:48:50.596Z,4.84
2019-01-29T04:51:24.984Z,4.71
2019-01-29T04:53:57.851Z,4.78
2019-01-29T04:56:33.037Z,4.66
2019-01-29T04:59:02.635Z,4.54
2019-01-29T05:01:32.251Z,4.67
2019-01-29T05:04:02.048Z,4.99
2019-01-29T05:06:31.633Z,4.84
2019-01-29T05:09:01.356Z,4.89
2019-01-29T05:11:31.015Z,4.76
2019-01-29T05:14:00.605Z,4.85
2019-01-29T05:16:30.207Z,4.78
2019-01-29T05:18:59.936Z,4.89
2019-01-29T05:21:29.530Z,4.91
2019-01-29T05:24:06.623Z,5.03
2019-01-29T05:26:30.505Z,5.33
2019-01-29T05:29:00.350Z,5.35
2019-01-29T05:31:30.355Z,5.65
2019-01-29T05:34:00.076Z,5.90
2019-01-29T05:36:29.704Z,6.09
2019-01-29T05:38:59.303Z,6.18
2019-01-29T05:41:28.966Z,6.24
2019-01-29T05:43:58.572Z,6.43
2019-01-29T05:46:28.197Z,6.72
2019-01-29T05:48:57.831Z,6.35
2019-01-29T05:51:27.458Z,6.03
2019-01-29T05:53:57.032Z,5.97
2019-01-29T05:56:26.758Z,5.73
2019-01-29T05:58:56.406Z,5.87
2019-01-29T06:01:26.089Z,6.00
2019-01-29T06:04:05.636Z,6.17
2019-01-29T06:06:35.268Z,6.93
2019-01-29T06:09:07.522Z,6.57
2019-01-29T06:11:37.384Z,6.71
2019-01-29T06:14:07.317Z,7.09
2019-01-29T06:16:36.961Z,7.55
2019-01-29T06:19:07.045Z,7.36
2019-01-29T06:21:36.670Z,7.40
2019-01-29T06:24:06.524Z,7.11
2019-01-29T06:26:36.251Z,6.67
2019-01-29T06:29:08.433Z,6.58
2019-01-29T06:31:38.030Z,6.34
2019-01-29T06:34:07.692Z,6.18
2019-01-29T06:36:37.320Z,7.13
2019-01-29T06:39:10.208Z,7.41
2019-01-29T06:41:39.936Z,7.18
2019-01-29T06:44:09.563Z,7.38
2019-01-29T06:46:39.163Z,6.47
2019-01-29T06:49:08.972Z,6.54
2019-01-29T06:51:38.604Z,7.14
2019-01-29T06:54:08.200Z,7.62
2019-01-29T06:56:37.856Z,7.74
2019-01-29T06:59:07.485Z,7.78
2019-01-29T07:01:37.096Z,7.76
2019-01-29T07:04:06.902Z,7.30
2019-01-29T07:06:36.583Z,7.11
2019-01-29T07:09:09.251Z,8.04
2019-01-29T07:11:39.066Z,7.98
2019-01-29T07:14:08.804Z,8.46
2019-01-29T07:17:06.185Z,8.33
2019-01-29T07:19:39.145Z,8.19
2019-01-29T07:22:08.906Z,8.13
2019-01-29T07:24:42.964Z,8.42
2019-01-29T07:27:09.869Z,7.77
2019-01-29T07:29:39.616Z,7.36
2019-01-29T07:32:09.414Z,7.73
2019-01-29T07:34:39.343Z,8.10
2019-01-29T07:37:09.119Z,8.09
2019-01-29T07:39:38.743Z,8.14
2019-01-29T07:42:08.463Z,7.59
2019-01-29T07:44:38.306Z,7.73
2019-01-29T07:47:08.027Z,8.09
2019-01-29T07:49:37.674Z,7.39
2019-01-29T07:52:07.560Z,7.46
2019-01-29T07:54:37.337Z,6.82
2019-01-29T07:57:07.045Z,7.55
2019-01-29T07:59:36.786Z,7.46
2019-01-29T08:02:06.565Z,7.79
2019-01-29T08:04:39.233Z,7.98
2019-01-29T08:07:09.002Z,7.84
2019-01-29T08:09:38.706Z,7.83
2019-01-29T08:12:08.450Z,7.62
2019-01-29T08:14:38.176Z,8.39
2019-01-29T08:17:07.952Z,8.07
2019-01-29T08:19:37.557Z,8.65
2019-01-29T08:22:07.183Z,8.75
2019-01-29T08:24:36.824Z,8.16
2019-01-29T08:27:06.601Z,8.01
2019-01-29T08:29:36.670Z,8.12
2019-01-29T08:32:07.233Z,7.42
2019-01-29T08:34:37.145Z,7.76
2019-01-29T08:37:07.691Z,7.96
2019-01-29T08:39:37.550Z,8.08
2019-01-29T08:42:07.200Z,8.24
2019-01-29T08:44:36.839Z,8.66
2019-01-29T08:47:07.048Z,8.20
2019-01-29T08:49:37.058Z,8.82
2019-01-29T08:52:06.659Z,9.01
2019-01-29T08:54:36.335Z,9.21
2019-01-29T08:57:06.253Z,9.35
2019-01-29T08:59:37.428Z,9.45
2019-01-29T09:02:08.232Z,9.70
2019-01-29T09:04:40.190Z,10.18
2019-01-29T09:07:10.609Z,9.87
2019-01-29T09:09:40.295Z,9.78
2019-01-29T09:12:09.958Z,9.86
2019-01-29T09:14:39.590Z,9.60
2019-01-29T09:17:09.238Z,9.23
2019-01-29T09:19:38.872Z,9.99
2019-01-29T09:22:08.543Z,10.27
2019-01-29T09:24:38.204Z,9.70
2019-01-29T09:27:07.875Z,9.67
2019-01-29T09:29:37.504Z,9.05
2019-01-29T09:32:07.185Z,8.73
2019-01-29T09:34:36.813Z,8.61
2019-01-29T09:37:06.406Z,8.65
2019-01-29T09:39:36.064Z,8.97
2019-01-29T09:42:09.044Z,9.21
2019-01-29T09:44:38.926Z,9.10
2019-01-29T09:47:09.396Z,9.65
2019-01-29T09:49:39.079Z,9.04
2019-01-29T09:52:08.904Z,9.55
2019-01-29T09:54:38.569Z,9.93
2019-01-29T09:57:08.274Z,9.52
2019-01-29T09:59:37.899Z,10.01
2019-01-29T10:02:07.646Z,9.93
2019-01-29T10:04:37.384Z,10.28
2019-01-29T10:07:07.200Z,10.82
2019-01-29T10:09:36.854Z,10.47
2019-01-29T10:12:06.441Z,10.45
2019-01-29T10:14:36.038Z,10.54
2019-01-29T10:17:05.853Z,10.85
2019-01-29T10:19:35.516Z,11.21
2019-01-29T10:22:05.281Z,11.11
2019-01-29T10:24:34.891Z,11.27
2019-01-29T10:27:04.759Z,11.97
2019-01-29T10:29:34.423Z,11.00
2019-01-29T10:32:04.263Z,10.97
2019-01-29T10:34:33.876Z,10.65
2019-01-29T10:37:03.780Z,10.51
2019-01-29T10:39:33.509Z,10.32
2019-01-29T10:42:06.010Z,10.17
2019-01-29T10:44:36.261Z,10.14
2019-01-29T10:47:06.252Z,10.39
2019-01-29T10:49:36.175Z,10.92
2019-01-29T10:52:08.204Z,10.87
2019-01-29T10:54:37.919Z,11.04
2019-01-29T10:57:10.118Z,10.41
2019-01-29T10:59:39.546Z,11.01
2019-01-29T11:02:09.597Z,10.52
2019-01-29T11:04:39.467Z,11.20
2019-01-29T11:07:09.393Z,10.84
2019-01-29T11:09:40.306Z,10.63
2019-01-29T11:12:11.283Z,10.29
2019-01-29T11:14:41.554Z,11.03
2019-01-29T11:17:12.106Z,11.62
2019-01-29T11:19:41.849Z,11.84
2019-01-29T11:22:12.832Z,11.46
2019-01-29T11:24:42.656Z,11.82
2019-01-29T11:27:12.626Z,12.03
2019-01-29T11:29:42.326Z,12.14
2019-01-29T11:32:11.958Z,11.51
2019-01-29T11:34:41.818Z,11.73
2019-01-29T11:37:12.162Z,12.33
2019-01-29T11:39:41.987Z,11.81
2019-01-29T11:42:11.658Z,10.71
2019-01-29T11:44:41.546Z,10.64
2019-01-29T11:47:11.269Z,10.47
2019-01-29T11:49:40.985Z,10.39
2019-01-29T11:52:11.337Z,11.38
2019-01-29T11:54:41.481Z,10.89
2019-01-29T11:57:12.945Z,10.62
2019-01-29T11:59:43.367Z,10.65
2019-01-29T12:02:13.633Z,10.56
2019-01-29T12:04:44.315Z,11.22
2019-01-29T12:07:15.393Z,11.37
2019-01-29T12:09:46.760Z,11.80
2019-01-29T12:12:19.076Z,11.78
2019-01-29T12:14:48.837Z,12.25
2019-01-29T12:17:18.579Z,11.33
2019-01-29T12:19:48.537Z,11.30
2019-01-29T12:22:18.694Z,11.67
2019-01-29T12:24:48.380Z,11.48
2019-01-29T12:27:18.087Z,11.56
2019-01-29T12:29:47.836Z,11.74
2019-01-29T12:32:17.593Z,11.84
2019-01-29T12:34:47.391Z,11.86
2019-01-29T12:37:19.943Z,11.92
2019-01-29T12:39:49.680Z,12.59
2019-01-29T12:42:19.935Z,12.60
2019-01-29T12:44:49.609Z,12.56
2019-01-29T12:47:20.247Z,12.51
2019-01-29T12:50:19.658Z,12.48
2019-01-29T12:53:19.760Z,12.54
2019-01-29T12:55:51.197Z,12.47
2019-01-29T12:58:21.268Z,12.37
2019-01-29T13:01:08.191Z,12.51
2019-01-29T13:03:47.129Z,12.58
2019-01-29T13:06:17.265Z,12.41
2019-01-29T13:08:47.931Z,11.33
2019-01-29T13:11:31.965Z,12.12
2019-01-29T13:14:03.551Z,12.04
2019-01-29T13:16:35.602Z,11.85
2019-01-29T13:19:05.706Z,11.96
2019-01-29T13:21:35.647Z,11.47
2019-01-29T13:24:11.040Z,11.70
2019-01-29T13:26:40.997Z,10.95
2019-01-29T13:29:15.242Z,11.43
2019-01-29T13:31:47.411Z,10.89
2019-01-29T13:34:20.123Z,10.64
2019-01-29T13:36:51.364Z,10.35
2019-01-29T13:39:25.369Z,10.40
2019-01-29T13:41:59.002Z,10.90
2019-01-29T13:44:28.652Z,10.97
2019-01-29T13:46:58.406Z,11.24
2019-01-29T13:49:28.033Z,11.50
2019-01-29T13:51:57.928Z,11.63
2019-01-29T13:54:27.557Z,11.83
2019-01-29T13:56:57.304Z,11.87
2019-01-29T13:59:27.024Z,11.78
2019-01-29T14:01:57.793Z,11.84
2019-01-29T14:04:27.435Z,11.79
2019-01-29T14:06:57.263Z,11.91
2019-01-29T14:09:28.554Z,12.06
2019-01-29T14:11:58.433Z,11.63
2019-01-29T14:14:29.753Z,11.71
2019-01-29T14:16:59.530Z,11.92
2019-01-29T14:19:29.178Z,11.96
2019-01-29T14:21:58.968Z,12.25
2019-01-29T14:24:28.565Z,12.54
2019-01-29T14:26:58.343Z,12.16
2019-01-29T14:29:29.454Z,11.96
2019-01-29T14:31:59.048Z,12.45
2019-01-29T14:34:28.646Z,12.49
2019-01-29T14:36:58.311Z,12.23
2019-01-29T14:39:41.687Z,11.99
2019-01-29T14:42:11.369Z,11.56
2019-01-29T14:44:45.160Z,11.37
2019-01-29T14:47:14.794Z,11.20
2019-01-29T14:49:44.447Z,10.90
2019-01-29T14:52:14.567Z,10.98
2019-01-29T14:54:44.195Z,11.45
2019-01-29T14:57:14.338Z,11.20
2019-01-29T14:59:43.972Z,11.11
2019-01-29T15:02:13.607Z,11.38
2019-01-29T15:04:43.343Z,11.74
2019-01-29T15:07:12.978Z,11.55
2019-01-29T15:09:42.611Z,11.77
2019-01-29T15:12:12.281Z,12.02
2019-01-29T15:14:41.906Z,11.83
2019-01-29T15:17:31.721Z,11.36
2019-01-29T15:20:01.347Z,11.49
2019-01-29T15:22:31.099Z,11.82
2019-01-29T15:25:01.006Z,11.74
2019-01-29T15:27:30.694Z,11.34
2019-01-29T15:30:00.315Z,11.08
2019-01-29T15:32:30.088Z,11.03
2019-01-29T15:34:59.683Z,10.98
2019-01-29T15:37:29.309Z,11.27
2019-01-29T15:39:59.010Z,10.94
2019-01-29T15:42:28.672Z,10.89
2019-01-29T15:44:58.969Z,10.41
2019-01-29T15:47:28.832Z,10.39
2019-01-29T15:49:58.466Z,10.30
2019-01-29T15:52:28.221Z,10.28
2019-01-29T15:54:57.953Z,10.27
2019-01-29T15:57:27.724Z,10.20
2019-01-29T15:59:57.457Z,10.10
2019-01-29T16:02:27.146Z,10.09
2019-01-29T16:04:56.757Z,10.13
2019-01-29T16:07:26.586Z,10.16
2019-01-29T16:09:56.246Z,10.11
2019-01-29T16:12:26.094Z,10.21
2019-01-29T16:14:55.774Z,10.35
2019-01-29T16:17:25.458Z,10.15
2019-01-29T16:19:55.098Z,10.08
2019-01-29T16:22:24.731Z,9.83
2019-01-29T16:24:54.533Z,9.57
2019-01-29T16:27:24.245Z,9.73
2019-01-29T16:29:53.923Z,9.64
2019-01-29T16:32:23.599Z,9.59
2019-01-29T16:34:53.220Z,9.55
2019-01-29T16:37:22.870Z,9.54
2019-01-29T16:39:52.669Z,9.59
2019-01-29T16:42:22.322Z,9.58
2019-01-29T16:44:52.006Z,9.69
2019-01-29T16:47:21.882Z,9.74
2019-01-29T16:49:51.480Z,9.77
2019-01-29T16:52:21.103Z,9.81
2019-01-29T16:54:50.780Z,9.87
2019-01-29T16:57:20.387Z,9.94
2019-01-29T16:59:50.407Z,10.03
2019-01-29T17:02:20.159Z,9.86
2019-01-29T17:04:49.851Z,9.77
2019-01-29T17:07:19.568Z,9.82
2019-01-29T17:09:49.338Z,9.87
2019-01-29T17:12:18.949Z,9.79
2019-01-29T17:14:49.844Z,9.74
2019-01-29T17:17:19.810Z,9.76
2019-01-29T17:19:49.481Z,9.73
2019-01-29T17:22:19.117Z,9.77
2019-01-29T17:24:48.762Z,9.79
2019-01-29T17:27:18.389Z,9.75
2019-01-29T17:29:48.038Z,9.78
2019-01-29T17:32:17.725Z,9.83
2019-01-29T17:34:47.330Z,9.80
2019-01-29T17:37:16.926Z,9.77
2019-01-29T17:39:46.593Z,9.74
2019-01-29T17:42:16.280Z,9.67
2019-01-29T17:44:45.908Z,9.69
2019-01-29T17:47:15.715Z,9.70
2019-01-29T17:49:45.376Z,9.65
2019-01-29T17:52:15.005Z,9.62
2019-01-29T17:54:44.717Z,9.61
2019-01-29T17:57:14.317Z,9.78
2019-01-29T17:59:43.971Z,9.84
2019-01-29T18:02:13.837Z,9.59
2019-01-29T18:04:43.557Z,9.27
2019-01-29T18:07:13.189Z,9.22
2019-01-29T18:09:42.926Z,9.14
2019-01-29T18:12:12.585Z,9.27
2019-01-29T18:14:42.251Z,9.31
2019-01-29T18:17:11.999Z,9.40
2019-01-29T18:19:41.649Z,9.44
2019-01-29T18:22:12.275Z,9.25
2019-01-29T18:24:41.964Z,9.08
2019-01-29T18:27:11.612Z,8.77
2019-01-29T18:29:41.286Z,8.99
2019-01-29T18:32:10.984Z,9.10
2019-01-29T18:34:40.589Z,8.72
2019-01-29T18:37:10.221Z,8.74
2019-01-29T18:39:39.900Z,8.85
2019-01-29T18:42:09.513Z,8.98
2019-01-29T18:44:39.108Z,9.00
2019-01-29T18:47:08.876Z,9.28
2019-01-29T18:49:38.496Z,9.37
2019-01-29T18:52:08.130Z,9.40
2019-01-29T18:54:37.858Z,9.53
2019-01-29T18:57:07.603Z,9.51
2019-01-29T18:59:37.268Z,9.53
2019-01-29T19:02:07.193Z,9.63
2019-01-29T19:04:36.865Z,9.65
2019-01-29T19:07:06.502Z,9.73
2019-01-29T19:09:36.182Z,9.79
2019-01-29T19:12:05.913Z,9.68
2019-01-29T19:14:35.607Z,9.78
2019-01-29T19:17:07.055Z,9.80
2019-01-29T19:19:36.666Z,9.86
2019-01-29T19:22:06.344Z,9.84
2019-01-29T19:24:36.003Z,9.73
2019-01-29T19:27:05.755Z,9.78
2019-01-29T19:29:35.373Z,9.86
2019-01-29T19:32:05.317Z,9.83
2019-01-29T19:34:35.059Z,9.72
2019-01-29T19:37:04.755Z,9.64
2019-01-29T19:39:34.478Z,9.62
2019-01-29T19:42:04.101Z,9.75
2019-01-29T19:44:33.777Z,9.90
2019-01-29T19:47:03.475Z,9.81
2019-01-29T19:49:33.080Z,9.90
2019-01-29T19:52:02.694Z,9.64
2019-01-29T19:54:32.448Z,9.68
2019-01-29T19:57:02.163Z,9.58
2019-01-29T19:59:31.815Z,9.46
2019-01-29T20:02:01.510Z,9.35
2019-01-29T20:04:31.111Z,9.29
2019-01-29T20:07:00.737Z,9.26
2019-01-29T20:09:30.413Z,9.19
2019-01-29T20:12:00.186Z,9.21
2019-01-29T20:14:29.859Z,9.40
2019-01-29T20:16:59.680Z,9.29
2019-01-29T20:19:29.391Z,9.32
2019-01-29T20:21:59.045Z,9.47
2019-01-29T20:24:28.734Z,9.34
2019-01-29T20:26:58.322Z,9.31
2019-01-29T20:29:27.957Z,9.30
2019-01-29T20:31:57.714Z,9.47
2019-01-29T20:34:27.340Z,9.53
2019-01-29T20:36:57.145Z,9.60
2019-01-29T20:39:34.790Z,9.58
2019-01-29T20:41:58.164Z,9.53
2019-01-29T20:44:27.793Z,9.35
2019-01-29T20:46:57.583Z,9.42
2019-01-29T20:49:27.207Z,9.32
2019-01-29T20:51:56.871Z,9.26
2019-01-29T20:54:29.635Z,9.32
2019-01-29T20:56:59.243Z,9.42
2019-01-29T20:59:55.898Z,9.52
2019-01-29T21:02:25.058Z,9.60
2019-01-29T21:04:56.573Z,9.52
2019-01-29T21:07:26.458Z,9.51
2019-01-29T21:09:56.060Z,9.73
2019-01-29T21:12:28.542Z,9.50
2019-01-29T21:14:58.247Z,9.45
2019-01-29T21:17:27.862Z,9.34
2019-01-29T21:19:57.458Z,9.10
2019-01-29T21:22:27.830Z,8.87
2019-01-29T21:24:57.420Z,8.73
2019-01-29T21:27:27.009Z,8.66
2019-01-29T21:29:56.661Z,8.74
2019-01-29T21:32:26.579Z,8.73
2019-01-29T21:34:56.204Z,8.32
2019-01-29T21:37:25.930Z,8.42
2019-01-29T21:39:55.512Z,8.40
2019-01-29T21:42:25.101Z,8.46
2019-01-29T21:44:54.868Z,8.49
2019-01-29T21:47:24.475Z,8.56
2019-01-29T21:49:54.071Z,8.14
2019-01-29T21:52:23.727Z,8.11
2019-01-29T21:54:53.333Z,8.19
2019-01-29T21:57:22.926Z,8.14
2019-01-29T21:59:52.748Z,8.40
2019-01-29T22:02:22.346Z,8.25
2019-01-29T22:04:51.987Z,8.24
2019-01-29T22:07:21.622Z,8.33
2019-01-29T22:09:51.236Z,8.48
2019-01-29T22:12:20.954Z,8.49
2019-01-29T22:14:50.697Z,7.98
2019-01-29T22:17:20.294Z,7.86
2019-01-29T22:19:49.891Z,8.05
2019-01-29T22:22:19.552Z,8.04
2019-01-29T22:24:49.148Z,7.91
2019-01-29T22:27:18.739Z,7.93
2019-01-29T22:29:48.443Z,8.11
2019-01-29T22:32:18.028Z,8.11
2019-01-29T22:34:47.598Z,7.79
2019-01-29T22:37:17.240Z,7.87
2019-01-29T22:39:46.869Z,7.88
2019-01-29T22:42:16.446Z,7.95
2019-01-29T22:44:46.080Z,7.90
2019-01-29T22:47:15.666Z,7.76
2019-01-29T22:49:45.232Z,7.38
2019-01-29T22:52:14.959Z,7.53
2019-01-29T22:54:44.529Z,7.67
2019-01-29T22:57:14.089Z,7.77
2019-01-29T22:59:43.779Z,7.54
2019-01-29T23:02:13.347Z,7.57
2019-01-29T23:04:46.746Z,7.58
2019-01-29T23:07:27.855Z,7.47
2019-01-29T23:09:57.484Z,7.10
2019-01-29T23:12:27.356Z,7.27
2019-01-29T23:14:56.959Z,7.50
2019-01-29T23:17:26.723Z,7.56
2019-01-29T23:19:56.273Z,7.44
2019-01-29T23:22:46.293Z,7.44
2019-01-29T23:25:15.922Z,7.50
2019-01-29T23:27:45.523Z,7.59
2019-01-29T23:30:16.893Z,7.53
2019-01-29T23:32:46.497Z,7.68
2019-01-29T23:35:16.449Z,7.74
2019-01-29T23:37:46.169Z,8.08
2019-01-29T23:40:16.181Z,8.14
2019-01-29T23:42:45.881Z,7.94
2019-01-29T23:45:15.806Z,7.74
2019-01-29T23:47:45.450Z,7.54
2019-01-29T23:50:15.247Z,7.23
2019-01-29T23:52:44.905Z,7.40
2019-01-29T23:55:14.803Z,7.50
2019-01-29T23:57:44.425Z,7.68
